Harry Mcneal — WDC5994 — position and weather

sailwx.info

Track history (hours):
 
Tides and Currents Weather Stations Pressure Air Temp Water Temp Dewpoint Dewpoint Depression Visibility Wind Speed Wind Dir Waves Ship Positions

Harry Mcneal

Owner: K-T MARINE, INC, PERTH AMBOY, NJ. More information available from US FCC via Universal Licensing System and Coast Guard Vessel Documentation Center.

Last reported at 2018-Feb-09 15:00 UTC. Time now 2018-Feb-21 03:39 UTC.
Position N 40°39' W 074°07'.
Warning: this ship's position is 11 days out of date.

Length 18 m; draft 2.5 m.

Type: Towing. MMSI: 367049650.

Date/timePositionNaut miles runAvg speedWind from/ knotsBaromVisibWave heightAir tempDewpointWater temp
2018-Feb-09 15:00N 40°39' W 074°07'1 0.6
2018-Feb-09 14:00N 40°39' W 074°08'  
2018-Jan-31 16:45N 40°33' W 074°15'3 7.1
2018-Jan-31 16:22N 40°35' W 074°13'3 8.8
2018-Jan-31 16:00N 40°38' W 074°12'2 3.0
2018-Jan-31 15:30N 40°39' W 074°10'3 5.0
2018-Jan-31 15:00N 40°39' W 074°07'2 3.8
2018-Jan-31 14:30N 40°39' W 074°10'7 0.4
2018-Jan-30 19:15N 40°33' W 074°15'2 5.7
2018-Jan-30 18:58N 40°33' W 074°13'3 7.2
2018-Jan-30 18:30N 40°37' W 074°12'3 6.0
2018-Jan-30 18:00N 40°39' W 074°09'2 3.1
2018-Jan-30 17:30N 40°39' W 074°07'0 0.0
2018-Jan-30 16:59N 40°39' W 074°07'0 0.0
2018-Jan-30 16:30N 40°39' W 074°07'0 0.9
2018-Jan-30 16:00N 40°39' W 074°07'0 0.7
2018-Jan-30 15:30N 40°39' W 074°06'  
Track history (hours):
 
Tides and Currents Weather Stations Pressure Air Temp Water Temp Dewpoint Dewpoint Depression Visibility Wind Speed Wind Dir Waves Ship Positions

Harry Mcneal

Owner: K-T MARINE, INC, PERTH AMBOY, NJ. More information available from US FCC via Universal Licensing System and Coast Guard Vessel Documentation Center.

Last reported at 2018-Feb-09 15:00 UTC. Time now 2018-Feb-21 03:39 UTC.
Position N 40°39' W 074°07'.
Warning: this ship's position is 11 days out of date.

Length 18 m; draft 2.5 m.

Type: Towing. MMSI: 367049650.

Date/timePositionNaut miles runAvg speedWind from/ knotsBaromVisibWave heightAir tempDewpointWater temp
2018-Feb-09 15:00N 40°39' W 074°07'1 0.6
2018-Feb-09 14:00N 40°39' W 074°08'  
2018-Jan-31 16:45N 40°33' W 074°15'3 7.1
2018-Jan-31 16:22N 40°35' W 074°13'3 8.8
2018-Jan-31 16:00N 40°38' W 074°12'2 3.0
2018-Jan-31 15:30N 40°39' W 074°10'3 5.0
2018-Jan-31 15:00N 40°39' W 074°07'2 3.8
2018-Jan-31 14:30N 40°39' W 074°10'7 0.4
2018-Jan-30 19:15N 40°33' W 074°15'2 5.7
2018-Jan-30 18:58N 40°33' W 074°13'3 7.2
2018-Jan-30 18:30N 40°37' W 074°12'3 6.0
2018-Jan-30 18:00N 40°39' W 074°09'2 3.1
2018-Jan-30 17:30N 40°39' W 074°07'0 0.0
2018-Jan-30 16:59N 40°39' W 074°07'0 0.0
2018-Jan-30 16:30N 40°39' W 074°07'0 0.9
2018-Jan-30 16:00N 40°39' W 074°07'0 0.7
2018-Jan-30 15:30N 40°39' W 074°06'  

Dump ship's entire track history